sensor_id;sensor_type;location;lat;lon;timestamp;P1;durP1;ratioP1;P2;durP2;ratioP2
22470;SDS011;11402;51.374;6.594;2023-02-01T00:01:21;21.13;;;7.13;;
22470;SDS011;11402;51.374;6.594;2023-02-01T00:03:47;24.88;;;7.28;;
22470;SDS011;11402;51.374;6.594;2023-02-01T00:06:12;21.45;;;7.50;;
22470;SDS011;11402;51.374;6.594;2023-02-01T00:08:38;22.23;;;7.60;;
22470;SDS011;11402;51.374;6.594;2023-02-01T00:11:04;24.63;;;7.47;;
22470;SDS011;11402;51.374;6.594;2023-02-01T00:13:32;22.80;;;7.75;;
22470;SDS011;11402;51.374;6.594;2023-02-01T00:16:15;18.08;;;7.68;;
22470;SDS011;11402;51.374;6.594;2023-02-01T00:18:43;25.42;;;8.40;;
22470;SDS011;11402;51.374;6.594;2023-02-01T00:21:11;29.02;;;8.77;;
22470;SDS011;11402;51.374;6.594;2023-02-01T00:23:37;21.08;;;8.43;;
22470;SDS011;11402;51.374;6.594;2023-02-01T00:26:05;18.10;;;7.97;;
22470;SDS011;11402;51.374;6.594;2023-02-01T00:28:31;22.65;;;9.43;;
22470;SDS011;11402;51.374;6.594;2023-02-01T00:31:01;23.27;;;9.70;;
22470;SDS011;11402;51.374;6.594;2023-02-01T00:33:29;23.80;;;9.70;;
22470;SDS011;11402;51.374;6.594;2023-02-01T00:36:05;25.65;;;10.50;;
22470;SDS011;11402;51.374;6.594;2023-02-01T00:38:33;26.80;;;11.02;;
22470;SDS011;11402;51.374;6.594;2023-02-01T00:41:05;24.50;;;12.02;;
22470;SDS011;11402;51.374;6.594;2023-02-01T00:43:32;26.88;;;12.27;;
22470;SDS011;11402;51.374;6.594;2023-02-01T00:45:58;25.48;;;11.75;;
22470;SDS011;11402;51.374;6.594;2023-02-01T00:48:24;29.08;;;11.57;;
22470;SDS011;11402;51.374;6.594;2023-02-01T00:50:50;31.90;;;12.95;;
22470;SDS011;11402;51.374;6.594;2023-02-01T00:53:16;28.33;;;12.13;;
22470;SDS011;11402;51.374;6.594;2023-02-01T00:55:45;34.67;;;13.07;;
22470;SDS011;11402;51.374;6.594;2023-02-01T00:58:11;33.72;;;11.93;;
22470;SDS011;11402;51.374;6.594;2023-02-01T01:00:37;32.72;;;12.45;;
22470;SDS011;11402;51.374;6.594;2023-02-01T01:03:03;29.23;;;11.23;;
22470;SDS011;11402;51.374;6.594;2023-02-01T01:05:42;24.05;;;10.32;;
22470;SDS011;11402;51.374;6.594;2023-02-01T01:08:09;28.60;;;10.30;;
22470;SDS011;11402;51.374;6.594;2023-02-01T01:10:34;27.00;;;10.20;;
22470;SDS011;11402;51.374;6.594;2023-02-01T01:13:00;27.40;;;10.27;;
22470;SDS011;11402;51.374;6.594;2023-02-01T01:15:26;21.00;;;9.48;;
22470;SDS011;11402;51.374;6.594;2023-02-01T01:17:51;25.73;;;9.50;;
22470;SDS011;11402;51.374;6.594;2023-02-01T01:20:17;31.92;;;9.68;;
22470;SDS011;11402;51.374;6.594;2023-02-01T01:22:42;21.30;;;8.55;;
22470;SDS011;11402;51.374;6.594;2023-02-01T01:25:08;26.65;;;8.10;;
22470;SDS011;11402;51.374;6.594;2023-02-01T01:27:34;23.95;;;7.18;;
22470;SDS011;11402;51.374;6.594;2023-02-01T01:29:59;25.90;;;8.00;;
22470;SDS011;11402;51.374;6.594;2023-02-01T01:32:25;21.67;;;7.13;;
22470;SDS011;11402;51.374;6.594;2023-02-01T01:34:50;23.00;;;7.53;;
22470;SDS011;11402;51.374;6.594;2023-02-01T01:37:16;27.27;;;7.25;;
22470;SDS011;11402;51.374;6.594;2023-02-01T01:39:41;26.17;;;7.10;;
22470;SDS011;11402;51.374;6.594;2023-02-01T01:42:09;28.02;;;7.30;;
22470;SDS011;11402;51.374;6.594;2023-02-01T01:47:23;23.60;;;6.22;;
22470;SDS011;11402;51.374;6.594;2023-02-01T01:49:50;19.35;;;5.93;;
22470;SDS011;11402;51.374;6.594;2023-02-01T01:52:15;23.63;;;5.65;;
22470;SDS011;11402;51.374;6.594;2023-02-01T01:54:43;22.88;;;6.43;;
22470;SDS011;11402;51.374;6.594;2023-02-01T01:57:14;18.92;;;5.20;;
22470;SDS011;11402;51.374;6.594;2023-02-01T01:59:46;21.77;;;5.13;;
22470;SDS011;11402;51.374;6.594;2023-02-01T02:02:14;17.23;;;4.93;;
22470;SDS011;11402;51.374;6.594;2023-02-01T02:04:40;24.88;;;6.45;;
22470;SDS011;11402;51.374;6.594;2023-02-01T02:07:14;21.20;;;5.35;;
22470;SDS011;11402;51.374;6.594;2023-02-01T02:09:44;20.90;;;5.53;;
22470;SDS011;11402;51.374;6.594;2023-02-01T02:12:11;20.40;;;5.15;;
22470;SDS011;11402;51.374;6.594;2023-02-01T02:14:36;20.95;;;5.40;;
22470;SDS011;11402;51.374;6.594;2023-02-01T02:19:55;17.98;;;4.50;;
22470;SDS011;11402;51.374;6.594;2023-02-01T02:28:24;21.08;;;4.35;;
22470;SDS011;11402;51.374;6.594;2023-02-01T02:31:23;25.73;;;5.40;;
22470;SDS011;11402;51.374;6.594;2023-02-01T02:37:20;23.40;;;4.95;;
22470;SDS011;11402;51.374;6.594;2023-02-01T02:40:12;23.15;;;5.10;;
22470;SDS011;11402;51.374;6.594;2023-02-01T02:42:55;22.33;;;5.28;;
22470;SDS011;11402;51.374;6.594;2023-02-01T02:45:59;15.63;;;3.85;;
22470;SDS011;11402;51.374;6.594;2023-02-01T02:49:09;22.92;;;4.57;;
22470;SDS011;11402;51.374;6.594;2023-02-01T02:51:44;19.42;;;4.57;;
22470;SDS011;11402;51.374;6.594;2023-02-01T02:54:35;22.63;;;4.75;;
22470;SDS011;11402;51.374;6.594;2023-02-01T02:57:29;19.65;;;4.35;;
22470;SDS011;11402;51.374;6.594;2023-02-01T03:00:18;21.50;;;5.45;;
22470;SDS011;11402;51.374;6.594;2023-02-01T03:03:05;20.52;;;4.78;;
22470;SDS011;11402;51.374;6.594;2023-02-01T03:05:50;18.67;;;5.35;;
22470;SDS011;11402;51.374;6.594;2023-02-01T03:08:17;20.63;;;4.90;;
22470;SDS011;11402;51.374;6.594;2023-02-01T03:13:48;24.88;;;5.93;;
22470;SDS011;11402;51.374;6.594;2023-02-01T03:16:26;20.20;;;4.97;;
22470;SDS011;11402;51.374;6.594;2023-02-01T03:21:35;22.98;;;5.65;;
22470;SDS011;11402;51.374;6.594;2023-02-01T03:24:11;24.35;;;5.40;;
22470;SDS011;11402;51.374;6.594;2023-02-01T03:26:43;20.63;;;5.35;;
22470;SDS011;11402;51.374;6.594;2023-02-01T03:29:22;20.77;;;5.50;;
22470;SDS011;11402;51.374;6.594;2023-02-01T03:31:52;29.33;;;5.57;;
22470;SDS011;11402;51.374;6.594;2023-02-01T03:34:18;23.27;;;4.97;;
22470;SDS011;11402;51.374;6.594;2023-02-01T03:37:03;27.60;;;5.18;;
22470;SDS011;11402;51.374;6.594;2023-02-01T03:40:06;20.77;;;5.72;;
22470;SDS011;11402;51.374;6.594;2023-02-01T03:42:31;23.85;;;5.70;;
22470;SDS011;11402;51.374;6.594;2023-02-01T03:45:05;20.48;;;6.35;;
22470;SDS011;11402;51.374;6.594;2023-02-01T03:47:39;25.67;;;6.15;;
22470;SDS011;11402;51.374;6.594;2023-02-01T03:50:08;19.27;;;5.30;;
22470;SDS011;11402;51.374;6.594;2023-02-01T03:52:44;21.70;;;5.38;;
22470;SDS011;11402;51.374;6.594;2023-02-01T03:55:16;18.38;;;5.15;;
22470;SDS011;11402;51.374;6.594;2023-02-01T03:57:46;28.85;;;5.40;;
22470;SDS011;11402;51.374;6.594;2023-02-01T04:00:34;26.92;;;5.25;;
22470;SDS011;11402;51.374;6.594;2023-02-01T04:03:00;26.45;;;5.75;;
22470;SDS011;11402;51.374;6.594;2023-02-01T04:05:27;27.60;;;5.47;;
22470;SDS011;11402;51.374;6.594;2023-02-01T04:07:53;27.65;;;6.13;;
22470;SDS011;11402;51.374;6.594;2023-02-01T04:10:19;23.88;;;5.93;;
22470;SDS011;11402;51.374;6.594;2023-02-01T04:12:44;24.30;;;5.75;;
22470;SDS011;11402;51.374;6.594;2023-02-01T04:15:10;22.85;;;5.25;;
22470;SDS011;11402;51.374;6.594;2023-02-01T04:17:36;20.58;;;5.25;;
22470;SDS011;11402;51.374;6.594;2023-02-01T04:20:01;29.45;;;5.32;;
22470;SDS011;11402;51.374;6.594;2023-02-01T04:22:27;23.05;;;4.93;;
22470;SDS011;11402;51.374;6.594;2023-02-01T04:24:53;28.55;;;5.35;;
22470;SDS011;11402;51.374;6.594;2023-02-01T04:27:19;28.25;;;5.80;;
22470;SDS011;11402;51.374;6.594;2023-02-01T04:29:44;26.63;;;6.32;;
22470;SDS011;11402;51.374;6.594;2023-02-01T04:32:10;22.25;;;5.15;;
22470;SDS011;11402;51.374;6.594;2023-02-01T04:34:35;22.92;;;5.10;;
22470;SDS011;11402;51.374;6.594;2023-02-01T04:37:01;26.70;;;5.28;;
22470;SDS011;11402;51.374;6.594;2023-02-01T04:39:27;29.45;;;5.30;;
22470;SDS011;11402;51.374;6.594;2023-02-01T04:41:53;29.23;;;5.88;;
22470;SDS011;11402;51.374;6.594;2023-02-01T04:44:18;22.20;;;5.00;;
22470;SDS011;11402;51.374;6.594;2023-02-01T04:46:45;26.05;;;5.07;;
22470;SDS011;11402;51.374;6.594;2023-02-01T04:49:11;24.70;;;5.28;;
22470;SDS011;11402;51.374;6.594;2023-02-01T04:51:38;22.25;;;5.25;;
22470;SDS011;11402;51.374;6.594;2023-02-01T04:54:04;19.88;;;4.47;;
22470;SDS011;11402;51.374;6.594;2023-02-01T04:56:30;22.48;;;4.82;;
22470;SDS011;11402;51.374;6.594;2023-02-01T04:58:56;26.95;;;4.70;;
22470;SDS011;11402;51.374;6.594;2023-02-01T05:01:21;26.23;;;5.07;;
22470;SDS011;11402;51.374;6.594;2023-02-01T05:03:47;24.40;;;4.78;;
22470;SDS011;11402;51.374;6.594;2023-02-01T05:06:13;26.85;;;5.40;;
22470;SDS011;11402;51.374;6.594;2023-02-01T05:08:38;26.33;;;5.68;;
22470;SDS011;11402;51.374;6.594;2023-02-01T05:11:04;27.08;;;5.20;;
22470;SDS011;11402;51.374;6.594;2023-02-01T05:13:30;24.23;;;5.25;;
22470;SDS011;11402;51.374;6.594;2023-02-01T05:16:25;18.80;;;4.22;;
22470;SDS011;11402;51.374;6.594;2023-02-01T05:18:51;27.08;;;5.15;;
22470;SDS011;11402;51.374;6.594;2023-02-01T05:21:17;23.73;;;4.93;;
22470;SDS011;11402;51.374;6.594;2023-02-01T05:23:43;23.42;;;5.00;;
22470;SDS011;11402;51.374;6.594;2023-02-01T05:26:27;25.95;;;4.50;;
22470;SDS011;11402;51.374;6.594;2023-02-01T05:28:53;25.77;;;5.65;;
22470;SDS011;11402;51.374;6.594;2023-02-01T05:31:19;28.88;;;5.35;;
22470;SDS011;11402;51.374;6.594;2023-02-01T05:33:44;22.98;;;4.20;;
22470;SDS011;11402;51.374;6.594;2023-02-01T05:36:10;22.95;;;4.68;;
22470;SDS011;11402;51.374;6.594;2023-02-01T05:38:35;25.00;;;5.10;;
22470;SDS011;11402;51.374;6.594;2023-02-01T05:41:01;21.55;;;4.78;;
22470;SDS011;11402;51.374;6.594;2023-02-01T05:43:26;33.67;;;4.85;;
22470;SDS011;11402;51.374;6.594;2023-02-01T05:45:52;25.65;;;4.68;;
22470;SDS011;11402;51.374;6.594;2023-02-01T05:48:18;22.13;;;4.53;;
22470;SDS011;11402;51.374;6.594;2023-02-01T05:50:43;31.58;;;5.30;;
22470;SDS011;11402;51.374;6.594;2023-02-01T05:53:09;22.55;;;4.47;;
22470;SDS011;11402;51.374;6.594;2023-02-01T05:55:35;28.60;;;5.30;;
22470;SDS011;11402;51.374;6.594;2023-02-01T05:58:02;26.23;;;4.70;;
22470;SDS011;11402;51.374;6.594;2023-02-01T06:00:28;27.83;;;6.32;;
22470;SDS011;11402;51.374;6.594;2023-02-01T06:02:53;32.92;;;5.25;;
22470;SDS011;11402;51.374;6.594;2023-02-01T06:05:19;25.33;;;5.30;;
22470;SDS011;11402;51.374;6.594;2023-02-01T06:07:45;22.55;;;4.55;;
22470;SDS011;11402;51.374;6.594;2023-02-01T06:10:10;27.42;;;5.22;;
22470;SDS011;11402;51.374;6.594;2023-02-01T06:12:36;25.88;;;5.25;;
22470;SDS011;11402;51.374;6.594;2023-02-01T06:15:02;30.88;;;5.63;;
22470;SDS011;11402;51.374;6.594;2023-02-01T06:17:27;26.52;;;5.10;;
22470;SDS011;11402;51.374;6.594;2023-02-01T06:19:53;29.92;;;5.65;;
22470;SDS011;11402;51.374;6.594;2023-02-01T06:22:19;27.33;;;5.28;;
22470;SDS011;11402;51.374;6.594;2023-02-01T06:24:44;26.00;;;5.07;;
22470;SDS011;11402;51.374;6.594;2023-02-01T06:27:10;23.35;;;6.10;;
22470;SDS011;11402;51.374;6.594;2023-02-01T06:29:35;29.92;;;5.68;;
22470;SDS011;11402;51.374;6.594;2023-02-01T06:32:01;24.30;;;4.30;;
22470;SDS011;11402;51.374;6.594;2023-02-01T06:34:28;26.58;;;4.72;;
22470;SDS011;11402;51.374;6.594;2023-02-01T06:36:53;27.35;;;5.25;;
22470;SDS011;11402;51.374;6.594;2023-02-01T06:39:19;24.20;;;5.05;;
22470;SDS011;11402;51.374;6.594;2023-02-01T06:41:46;26.05;;;4.93;;
22470;SDS011;11402;51.374;6.594;2023-02-01T06:44:12;25.02;;;4.75;;
22470;SDS011;11402;51.374;6.594;2023-02-01T06:46:38;29.50;;;4.55;;
22470;SDS011;11402;51.374;6.594;2023-02-01T06:49:04;26.42;;;5.22;;
22470;SDS011;11402;51.374;6.594;2023-02-01T06:51:29;25.92;;;4.38;;
22470;SDS011;11402;51.374;6.594;2023-02-01T06:53:55;26.00;;;4.72;;
22470;SDS011;11402;51.374;6.594;2023-02-01T06:56:21;20.30;;;4.65;;
22470;SDS011;11402;51.374;6.594;2023-02-01T06:58:47;23.38;;;5.45;;
22470;SDS011;11402;51.374;6.594;2023-02-01T07:01:14;25.33;;;4.22;;
22470;SDS011;11402;51.374;6.594;2023-02-01T07:03:40;23.92;;;5.00;;
22470;SDS011;11402;51.374;6.594;2023-02-01T07:06:06;23.52;;;5.45;;
22470;SDS011;11402;51.374;6.594;2023-02-01T07:08:33;24.40;;;5.22;;
22470;SDS011;11402;51.374;6.594;2023-02-01T07:11:01;22.63;;;4.88;;
22470;SDS011;11402;51.374;6.594;2023-02-01T07:13:28;25.58;;;4.25;;
22470;SDS011;11402;51.374;6.594;2023-02-01T07:15:57;31.02;;;4.93;;
22470;SDS011;11402;51.374;6.594;2023-02-01T07:18:23;28.05;;;4.85;;
22470;SDS011;11402;51.374;6.594;2023-02-01T07:20:52;22.23;;;4.72;;
22470;SDS011;11402;51.374;6.594;2023-02-01T07:23:17;31.02;;;5.55;;
22470;SDS011;11402;51.374;6.594;2023-02-01T07:25:44;32.50;;;5.53;;
22470;SDS011;11402;51.374;6.594;2023-02-01T07:28:09;23.33;;;4.85;;
22470;SDS011;11402;51.374;6.594;2023-02-01T07:30:35;27.60;;;4.68;;
22470;SDS011;11402;51.374;6.594;2023-02-01T07:33:00;26.13;;;4.63;;
22470;SDS011;11402;51.374;6.594;2023-02-01T07:35:27;27.42;;;5.38;;
22470;SDS011;11402;51.374;6.594;2023-02-01T07:37:53;25.20;;;4.60;;
22470;SDS011;11402;51.374;6.594;2023-02-01T07:40:18;31.67;;;4.95;;
22470;SDS011;11402;51.374;6.594;2023-02-01T07:42:49;21.52;;;4.93;;
22470;SDS011;11402;51.374;6.594;2023-02-01T07:45:15;26.08;;;5.25;;
22470;SDS011;11402;51.374;6.594;2023-02-01T07:47:41;23.02;;;3.92;;
22470;SDS011;11402;51.374;6.594;2023-02-01T07:50:06;31.52;;;5.25;;
22470;SDS011;11402;51.374;6.594;2023-02-01T07:52:32;27.45;;;5.50;;
22470;SDS011;11402;51.374;6.594;2023-02-01T07:54:58;32.33;;;4.80;;
22470;SDS011;11402;51.374;6.594;2023-02-01T07:57:24;31.77;;;4.93;;
22470;SDS011;11402;51.374;6.594;2023-02-01T07:59:49;24.20;;;5.32;;
22470;SDS011;11402;51.374;6.594;2023-02-01T08:02:33;26.20;;;5.20;;
22470;SDS011;11402;51.374;6.594;2023-02-01T08:04:59;22.77;;;4.65;;
22470;SDS011;11402;51.374;6.594;2023-02-01T08:07:25;25.00;;;4.22;;
22470;SDS011;11402;51.374;6.594;2023-02-01T08:09:50;32.92;;;4.90;;
22470;SDS011;11402;51.374;6.594;2023-02-01T08:12:16;21.10;;;4.78;;
22470;SDS011;11402;51.374;6.594;2023-02-01T08:14:41;20.52;;;4.72;;
22470;SDS011;11402;51.374;6.594;2023-02-01T08:17:07;23.52;;;5.00;;
22470;SDS011;11402;51.374;6.594;2023-02-01T08:19:32;24.95;;;5.30;;
22470;SDS011;11402;51.374;6.594;2023-02-01T08:21:58;31.02;;;5.20;;
22470;SDS011;11402;51.374;6.594;2023-02-01T08:24:24;27.33;;;4.72;;
22470;SDS011;11402;51.374;6.594;2023-02-01T08:26:50;25.00;;;5.25;;
22470;SDS011;11402;51.374;6.594;2023-02-01T08:29:15;24.58;;;4.68;;
22470;SDS011;11402;51.374;6.594;2023-02-01T08:31:42;31.50;;;5.80;;
22470;SDS011;11402;51.374;6.594;2023-02-01T08:34:08;28.13;;;5.00;;
22470;SDS011;11402;51.374;6.594;2023-02-01T08:36:34;34.28;;;9.10;;
22470;SDS011;11402;51.374;6.594;2023-02-01T08:39:00;27.38;;;6.70;;
22470;SDS011;11402;51.374;6.594;2023-02-01T08:41:27;26.50;;;5.38;;
22470;SDS011;11402;51.374;6.594;2023-02-01T08:43:55;23.98;;;5.40;;
22470;SDS011;11402;51.374;6.594;2023-02-01T08:46:21;30.98;;;5.43;;
22470;SDS011;11402;51.374;6.594;2023-02-01T08:48:48;33.05;;;5.75;;
22470;SDS011;11402;51.374;6.594;2023-02-01T08:51:15;28.50;;;5.53;;
22470;SDS011;11402;51.374;6.594;2023-02-01T08:53:42;22.77;;;5.82;;
22470;SDS011;11402;51.374;6.594;2023-02-01T08:56:09;28.35;;;6.30;;
22470;SDS011;11402;51.374;6.594;2023-02-01T08:58:36;29.85;;;5.53;;
22470;SDS011;11402;51.374;6.594;2023-02-01T09:01:19;22.08;;;5.55;;
22470;SDS011;11402;51.374;6.594;2023-02-01T09:06:11;21.30;;;4.97;;
22470;SDS011;11402;51.374;6.594;2023-02-01T09:08:38;23.45;;;5.18;;
22470;SDS011;11402;51.374;6.594;2023-02-01T09:11:05;26.17;;;5.18;;
22470;SDS011;11402;51.374;6.594;2023-02-01T09:13:33;19.55;;;5.38;;
22470;SDS011;11402;51.374;6.594;2023-02-01T09:15:59;20.08;;;4.55;;
22470;SDS011;11402;51.374;6.594;2023-02-01T09:18:25;26.05;;;4.93;;
22470;SDS011;11402;51.374;6.594;2023-02-01T09:20:51;20.67;;;4.82;;
22470;SDS011;11402;51.374;6.594;2023-02-01T09:23:16;28.45;;;6.32;;
22470;SDS011;11402;51.374;6.594;2023-02-01T09:25:42;26.25;;;5.45;;
22470;SDS011;11402;51.374;6.594;2023-02-01T09:28:07;20.25;;;5.57;;
22470;SDS011;11402;51.374;6.594;2023-02-01T09:30:34;24.95;;;5.63;;
22470;SDS011;11402;51.374;6.594;2023-02-01T09:33:01;31.75;;;5.65;;
22470;SDS011;11402;51.374;6.594;2023-02-01T09:35:27;28.63;;;5.75;;
22470;SDS011;11402;51.374;6.594;2023-02-01T09:37:53;25.08;;;5.55;;
22470;SDS011;11402;51.374;6.594;2023-02-01T09:40:19;25.75;;;5.30;;
22470;SDS011;11402;51.374;6.594;2023-02-01T09:45:38;29.85;;;5.40;;
22470;SDS011;11402;51.374;6.594;2023-02-01T09:48:28;27.20;;;4.78;;
22470;SDS011;11402;51.374;6.594;2023-02-01T09:51:02;22.58;;;5.15;;
22470;SDS011;11402;51.374;6.594;2023-02-01T09:53:36;25.02;;;5.05;;
22470;SDS011;11402;51.374;6.594;2023-02-01T09:56:05;27.50;;;5.68;;
22470;SDS011;11402;51.374;6.594;2023-02-01T09:58:42;22.25;;;5.55;;
22470;SDS011;11402;51.374;6.594;2023-02-01T10:01:18;23.52;;;5.13;;
22470;SDS011;11402;51.374;6.594;2023-02-01T10:03:47;27.55;;;5.03;;
22470;SDS011;11402;51.374;6.594;2023-02-01T10:06:17;26.02;;;5.70;;
22470;SDS011;11402;51.374;6.594;2023-02-01T10:14:57;32.33;;;5.45;;
22470;SDS011;11402;51.374;6.594;2023-02-01T10:17:53;22.77;;;5.20;;
22470;SDS011;11402;51.374;6.594;2023-02-01T10:25:54;23.30;;;4.93;;
22470;SDS011;11402;51.374;6.594;2023-02-01T10:28:21;26.88;;;4.72;;
22470;SDS011;11402;51.374;6.594;2023-02-01T10:30:49;19.55;;;5.30;;
22470;SDS011;11402;51.374;6.594;2023-02-01T10:33:34;21.52;;;4.35;;
22470;SDS011;11402;51.374;6.594;2023-02-01T10:38:44;27.13;;;5.50;;
22470;SDS011;11402;51.374;6.594;2023-02-01T10:41:15;22.55;;;4.95;;
22470;SDS011;11402;51.374;6.594;2023-02-01T10:43:50;22.40;;;5.63;;
22470;SDS011;11402;51.374;6.594;2023-02-01T10:46:20;21.23;;;5.05;;
22470;SDS011;11402;51.374;6.594;2023-02-01T10:48:47;20.95;;;4.90;;
22470;SDS011;11402;51.374;6.594;2023-02-01T10:51:16;22.73;;;4.68;;
22470;SDS011;11402;51.374;6.594;2023-02-01T10:53:58;27.17;;;5.38;;
22470;SDS011;11402;51.374;6.594;2023-02-01T10:56:28;27.77;;;5.22;;
22470;SDS011;11402;51.374;6.594;2023-02-01T10:59:05;30.15;;;5.15;;
22470;SDS011;11402;51.374;6.594;2023-02-01T11:01:42;18.50;;;5.03;;
22470;SDS011;11402;51.374;6.594;2023-02-01T11:04:13;22.25;;;4.80;;
22470;SDS011;11402;51.374;6.594;2023-02-01T11:06:49;16.20;;;4.47;;
22470;SDS011;11402;51.374;6.594;2023-02-01T11:09:21;26.45;;;5.28;;
22470;SDS011;11402;51.374;6.594;2023-02-01T11:17:33;20.15;;;4.40;;
22470;SDS011;11402;51.374;6.594;2023-02-01T11:19:38;21.88;;;4.72;;
22470;SDS011;11402;51.374;6.594;2023-02-01T11:22:08;21.00;;;4.78;;
22470;SDS011;11402;51.374;6.594;2023-02-01T11:24:36;21.60;;;5.20;;
22470;SDS011;11402;51.374;6.594;2023-02-01T11:27:05;21.92;;;5.45;;
22470;SDS011;11402;51.374;6.594;2023-02-01T11:29:39;25.58;;;5.13;;
22470;SDS011;11402;51.374;6.594;2023-02-01T11:32:08;20.75;;;4.97;;
22470;SDS011;11402;51.374;6.594;2023-02-01T11:34:41;25.25;;;5.25;;
22470;SDS011;11402;51.374;6.594;2023-02-01T11:37:33;25.67;;;5.10;;
22470;SDS011;11402;51.374;6.594;2023-02-01T11:40:23;20.38;;;4.80;;
22470;SDS011;11402;51.374;6.594;2023-02-01T11:43:22;30.50;;;5.30;;
22470;SDS011;11402;51.374;6.594;2023-02-01T11:45:56;25.50;;;4.70;;
22470;SDS011;11402;51.374;6.594;2023-02-01T11:48:30;21.52;;;4.85;;
22470;SDS011;11402;51.374;6.594;2023-02-01T12:04:58;19.40;;;5.07;;
22470;SDS011;11402;51.374;6.594;2023-02-01T12:07:59;24.70;;;5.07;;
22470;SDS011;11402;51.374;6.594;2023-02-01T12:10:29;18.75;;;4.38;;
22470;SDS011;11402;51.374;6.594;2023-02-01T12:15:41;17.73;;;4.18;;
22470;SDS011;11402;51.374;6.594;2023-02-01T12:23:51;24.58;;;4.93;;
22470;SDS011;11402;51.374;6.594;2023-02-01T12:26:52;17.02;;;3.97;;
22470;SDS011;11402;51.374;6.594;2023-02-01T12:32:20;17.30;;;4.15;;
22470;SDS011;11402;51.374;6.594;2023-02-01T12:35:13;18.52;;;3.65;;
22470;SDS011;11402;51.374;6.594;2023-02-01T12:43:50;15.57;;;3.03;;
22470;SDS011;11402;51.374;6.594;2023-02-01T12:48:53;17.65;;;3.22;;
22470;SDS011;11402;51.374;6.594;2023-02-01T12:51:24;18.63;;;3.33;;
22470;SDS011;11402;51.374;6.594;2023-02-01T12:54:06;16.13;;;3.42;;
22470;SDS011;11402;51.374;6.594;2023-02-01T12:56:42;13.30;;;3.40;;
22470;SDS011;11402;51.374;6.594;2023-02-01T12:59:24;15.15;;;3.30;;
22470;SDS011;11402;51.374;6.594;2023-02-01T13:02:22;19.67;;;3.50;;
22470;SDS011;11402;51.374;6.594;2023-02-01T13:05:18;20.55;;;3.90;;
22470;SDS011;11402;51.374;6.594;2023-02-01T13:10:33;19.52;;;3.13;;
22470;SDS011;11402;51.374;6.594;2023-02-01T13:15:58;16.00;;;3.50;;
22470;SDS011;11402;51.374;6.594;2023-02-01T13:18:49;16.30;;;3.33;;
22470;SDS011;11402;51.374;6.594;2023-02-01T13:21:18;17.95;;;3.38;;
22470;SDS011;11402;51.374;6.594;2023-02-01T13:23:56;17.88;;;3.33;;
22470;SDS011;11402;51.374;6.594;2023-02-01T13:26:23;15.55;;;3.13;;
22470;SDS011;11402;51.374;6.594;2023-02-01T13:28:53;14.95;;;3.03;;
22470;SDS011;11402;51.374;6.594;2023-02-01T13:34:42;14.02;;;2.67;;
22470;SDS011;11402;51.374;6.594;2023-02-01T13:40:17;17.65;;;3.33;;
22470;SDS011;11402;51.374;6.594;2023-02-01T13:43:08;15.68;;;3.42;;
22470;SDS011;11402;51.374;6.594;2023-02-01T13:45:43;19.52;;;3.13;;
22470;SDS011;11402;51.374;6.594;2023-02-01T13:48:26;15.65;;;2.95;;
22470;SDS011;11402;51.374;6.594;2023-02-01T13:51:12;18.08;;;3.40;;
22470;SDS011;11402;51.374;6.594;2023-02-01T13:53:43;20.83;;;3.47;;
22470;SDS011;11402;51.374;6.594;2023-02-01T13:56:15;15.38;;;3.08;;
22470;SDS011;11402;51.374;6.594;2023-02-01T13:58:43;21.90;;;3.40;;
22470;SDS011;11402;51.374;6.594;2023-02-01T14:03:49;20.85;;;3.67;;
22470;SDS011;11402;51.374;6.594;2023-02-01T14:06:34;17.98;;;2.80;;
22470;SDS011;11402;51.374;6.594;2023-02-01T14:09:15;20.35;;;3.67;;
22470;SDS011;11402;51.374;6.594;2023-02-01T14:11:50;16.60;;;3.17;;
22470;SDS011;11402;51.374;6.594;2023-02-01T14:26:55;13.55;;;2.58;;
22470;SDS011;11402;51.374;6.594;2023-02-01T14:29:29;17.48;;;3.38;;
22470;SDS011;11402;51.374;6.594;2023-02-01T14:32:05;17.85;;;3.03;;
22470;SDS011;11402;51.374;6.594;2023-02-01T14:42:18;15.52;;;3.08;;
22470;SDS011;11402;51.374;6.594;2023-02-01T14:44:50;19.33;;;3.03;;
22470;SDS011;11402;51.374;6.594;2023-02-01T14:52:19;19.05;;;3.13;;
22470;SDS011;11402;51.374;6.594;2023-02-01T14:54:49;15.13;;;3.15;;
22470;SDS011;11402;51.374;6.594;2023-02-01T14:57:19;16.50;;;3.33;;
22470;SDS011;11402;51.374;6.594;2023-02-01T14:59:47;15.35;;;3.05;;
22470;SDS011;11402;51.374;6.594;2023-02-01T15:02:20;17.67;;;2.85;;
22470;SDS011;11402;51.374;6.594;2023-02-01T15:04:53;19.13;;;3.00;;
22470;SDS011;11402;51.374;6.594;2023-02-01T15:07:20;22.83;;;4.53;;
22470;SDS011;11402;51.374;6.594;2023-02-01T15:09:49;19.48;;;3.85;;
22470;SDS011;11402;51.374;6.594;2023-02-01T15:12:16;20.20;;;2.85;;
22470;SDS011;11402;51.374;6.594;2023-02-01T15:15:02;13.00;;;3.50;;
22470;SDS011;11402;51.374;6.594;2023-02-01T15:17:35;18.67;;;3.22;;
22470;SDS011;11402;51.374;6.594;2023-02-01T15:20:11;16.40;;;3.35;;
22470;SDS011;11402;51.374;6.594;2023-02-01T15:22:41;19.63;;;3.88;;
22470;SDS011;11402;51.374;6.594;2023-02-01T15:25:20;16.23;;;3.08;;
22470;SDS011;11402;51.374;6.594;2023-02-01T15:27:47;13.65;;;3.35;;
22470;SDS011;11402;51.374;6.594;2023-02-01T15:30:20;19.83;;;3.00;;
22470;SDS011;11402;51.374;6.594;2023-02-01T15:32:48;16.25;;;3.15;;
22470;SDS011;11402;51.374;6.594;2023-02-01T15:43:41;21.13;;;3.47;;
22470;SDS011;11402;51.374;6.594;2023-02-01T15:46:12;14.13;;;3.42;;
22470;SDS011;11402;51.374;6.594;2023-02-01T15:48:44;16.90;;;3.35;;
22470;SDS011;11402;51.374;6.594;2023-02-01T15:51:22;23.27;;;3.63;;
22470;SDS011;11402;51.374;6.594;2023-02-01T15:53:59;20.45;;;3.67;;
22470;SDS011;11402;51.374;6.594;2023-02-01T15:56:33;21.33;;;4.93;;
22470;SDS011;11402;51.374;6.594;2023-02-01T15:59:04;19.40;;;4.85;;
22470;SDS011;11402;51.374;6.594;2023-02-01T16:01:37;20.73;;;4.20;;
22470;SDS011;11402;51.374;6.594;2023-02-01T16:04:10;24.02;;;3.90;;
22470;SDS011;11402;51.374;6.594;2023-02-01T16:06:44;22.05;;;4.15;;
22470;SDS011;11402;51.374;6.594;2023-02-01T16:09:24;19.10;;;3.40;;
22470;SDS011;11402;51.374;6.594;2023-02-01T16:12:00;21.63;;;4.10;;
22470;SDS011;11402;51.374;6.594;2023-02-01T16:14:28;18.10;;;3.72;;
22470;SDS011;11402;51.374;6.594;2023-02-01T16:16:55;21.17;;;3.80;;
22470;SDS011;11402;51.374;6.594;2023-02-01T16:19:22;18.60;;;4.20;;
22470;SDS011;11402;51.374;6.594;2023-02-01T16:21:52;20.75;;;3.75;;
22470;SDS011;11402;51.374;6.594;2023-02-01T16:24:18;21.60;;;4.05;;
22470;SDS011;11402;51.374;6.594;2023-02-01T16:26:47;25.63;;;4.03;;
22470;SDS011;11402;51.374;6.594;2023-02-01T16:29:12;23.33;;;4.32;;
22470;SDS011;11402;51.374;6.594;2023-02-01T16:31:40;25.92;;;3.65;;
22470;SDS011;11402;51.374;6.594;2023-02-01T16:34:06;23.23;;;4.03;;
22470;SDS011;11402;51.374;6.594;2023-02-01T16:36:35;20.58;;;3.72;;
22470;SDS011;11402;51.374;6.594;2023-02-01T16:39:01;22.60;;;4.25;;
22470;SDS011;11402;51.374;6.594;2023-02-01T16:41:28;22.67;;;3.58;;
22470;SDS011;11402;51.374;6.594;2023-02-01T16:43:54;23.27;;;3.95;;
22470;SDS011;11402;51.374;6.594;2023-02-01T16:46:21;22.17;;;4.00;;
22470;SDS011;11402;51.374;6.594;2023-02-01T16:48:57;22.77;;;3.88;;
22470;SDS011;11402;51.374;6.594;2023-02-01T16:53:50;21.27;;;4.07;;
22470;SDS011;11402;51.374;6.594;2023-02-01T16:56:17;21.85;;;4.15;;
22470;SDS011;11402;51.374;6.594;2023-02-01T16:58:47;23.90;;;4.13;;
22470;SDS011;11402;51.374;6.594;2023-02-01T17:01:14;23.98;;;4.82;;
22470;SDS011;11402;51.374;6.594;2023-02-01T17:03:41;19.33;;;4.03;;